createdAt,value
2022-08-30T00:01:03.329Z,82.10
2022-08-30T00:03:34.161Z,81.30
2022-08-30T00:06:01.147Z,80.80
2022-08-30T00:08:27.987Z,81.40
2022-08-30T00:10:55.379Z,81.20
2022-08-30T00:13:23.352Z,81.20
2022-08-30T00:15:50.418Z,81.40
2022-08-30T00:18:18.615Z,81.20
2022-08-30T00:20:46.792Z,81.10
2022-08-30T00:23:14.282Z,80.90
2022-08-30T00:25:41.666Z,80.70
2022-08-30T00:28:09.732Z,80.70
2022-08-30T00:30:37.233Z,80.70
2022-08-30T00:33:04.703Z,80.40
2022-08-30T00:35:31.779Z,80.60
2022-08-30T00:37:58.667Z,80.70
2022-08-30T00:40:27.614Z,80.60
2022-08-30T00:42:58.859Z,81.20
2022-08-30T00:45:30.824Z,81.20
2022-08-30T00:47:58.305Z,81.20
2022-08-30T00:50:35.366Z,80.90
2022-08-30T00:53:06.087Z,80.40
2022-08-30T00:55:33.270Z,81.20
2022-08-30T00:58:04.258Z,81.10
2022-08-30T01:00:32.344Z,81.40
2022-08-30T01:02:59.184Z,81.00
2022-08-30T01:05:26.142Z,80.60
2022-08-30T01:07:52.961Z,80.80
2022-08-30T01:10:20.139Z,81.20
2022-08-30T01:12:48.632Z,80.70
2022-08-30T01:15:15.856Z,80.70
2022-08-30T01:17:45.161Z,81.00
2022-08-30T01:20:17.663Z,80.80
2022-08-30T01:22:50.394Z,81.00
2022-08-30T01:25:22.189Z,81.30
2022-08-30T01:28:20.015Z,81.00
2022-08-30T01:30:47.620Z,80.60
2022-08-30T01:33:14.774Z,80.90
2022-08-30T01:36:00.466Z,80.90
2022-08-30T01:38:38.312Z,80.60
2022-08-30T01:41:14.119Z,80.80
2022-08-30T01:43:41.529Z,81.10
2022-08-30T01:46:08.620Z,81.10
2022-08-30T01:48:35.539Z,80.60
2022-08-30T01:51:02.437Z,80.90
2022-08-30T01:53:29.495Z,80.90
2022-08-30T01:55:56.395Z,81.20
2022-08-30T01:58:23.634Z,81.40
2022-08-30T02:00:51.373Z,81.20
2022-08-30T02:03:19.421Z,81.20
2022-08-30T02:05:46.438Z,81.10
2022-08-30T02:08:13.400Z,81.20
2022-08-30T02:10:40.358Z,80.90
2022-08-30T02:13:07.159Z,81.20
2022-08-30T02:15:41.267Z,81.20
2022-08-30T02:18:10.628Z,81.00
2022-08-30T02:20:39.588Z,81.30
2022-08-30T02:23:06.528Z,80.90
2022-08-30T02:25:33.370Z,80.90
2022-08-30T02:28:00.115Z,81.00
2022-08-30T02:30:27.245Z,81.00
2022-08-30T02:32:54.082Z,81.00
2022-08-30T02:35:20.887Z,81.40
2022-08-30T02:37:47.737Z,81.10
2022-08-30T02:40:14.840Z,81.40
2022-08-30T02:42:41.819Z,81.00
2022-08-30T02:45:09.115Z,81.20
2022-08-30T02:47:36.304Z,80.90
2022-08-30T02:50:06.289Z,81.20
2022-08-30T02:52:33.190Z,81.00
2022-08-30T02:55:00.127Z,81.10
2022-08-30T02:57:27.012Z,80.90
2022-08-30T02:59:53.887Z,81.20
2022-08-30T03:02:22.146Z,81.40
2022-08-30T03:04:49.317Z,81.20
2022-08-30T03:07:16.247Z,81.50
2022-08-30T03:09:43.048Z,81.40
2022-08-30T03:12:10.705Z,81.30
2022-08-30T03:14:38.605Z,81.30
2022-08-30T03:17:12.758Z,81.50
2022-08-30T03:19:43.515Z,81.30
2022-08-30T03:22:10.605Z,81.10
2022-08-30T03:24:37.813Z,81.20
2022-08-30T03:27:04.988Z,81.30
2022-08-30T03:29:31.817Z,81.20
2022-08-30T03:31:58.829Z,81.40
2022-08-30T03:34:26.823Z,81.60
2022-08-30T03:36:55.398Z,81.50
2022-08-30T03:39:23.176Z,81.20
2022-08-30T03:41:50.460Z,81.10
2022-08-30T03:44:18.813Z,81.30
2022-08-30T03:46:46.541Z,81.50
2022-08-30T03:49:13.436Z,81.50
2022-08-30T03:51:40.342Z,81.30
2022-08-30T03:54:07.297Z,81.30
2022-08-30T03:56:34.140Z,81.40
2022-08-30T03:59:01.111Z,81.60
2022-08-30T04:01:28.027Z,81.60
2022-08-30T04:03:56.593Z,81.50
2022-08-30T04:06:24.045Z,81.40
2022-08-30T04:08:51.183Z,81.60
2022-08-30T04:11:18.104Z,81.80
2022-08-30T04:13:44.954Z,81.60
2022-08-30T04:16:11.793Z,81.50
2022-08-30T04:18:39.010Z,81.70
2022-08-30T04:21:09.524Z,81.70
2022-08-30T04:23:39.220Z,81.80
2022-08-30T04:26:06.066Z,82.10
2022-08-30T04:28:35.103Z,82.30
2022-08-30T04:31:11.888Z,82.50
2022-08-30T04:33:39.459Z,82.80
2022-08-30T04:36:08.044Z,82.80
2022-08-30T04:38:36.225Z,82.80
2022-08-30T04:41:03.752Z,83.40
2022-08-30T04:43:30.490Z,82.80
2022-08-30T04:45:58.000Z,82.50
2022-08-30T04:48:24.811Z,82.60
2022-08-30T04:50:51.616Z,82.40
2022-08-30T04:53:18.463Z,82.10
2022-08-30T04:55:45.594Z,82.30
2022-08-30T04:58:12.405Z,82.30
2022-08-30T05:00:42.131Z,82.70
2022-08-30T05:03:09.110Z,82.90
2022-08-30T05:05:41.826Z,83.10
2022-08-30T05:08:11.500Z,83.10
2022-08-30T05:10:43.909Z,82.90
2022-08-30T05:13:12.014Z,82.10
2022-08-30T05:15:40.308Z,82.50
2022-08-30T05:18:08.744Z,82.30
2022-08-30T05:20:40.186Z,82.50
2022-08-30T05:23:06.994Z,82.80
2022-08-30T05:25:37.255Z,82.90
2022-08-30T05:28:04.316Z,82.80
2022-08-30T05:30:34.551Z,82.80
2022-08-30T05:33:02.300Z,82.80
2022-08-30T05:35:29.413Z,83.00
2022-08-30T05:37:56.188Z,83.20
2022-08-30T05:40:23.461Z,83.20
2022-08-30T05:42:50.508Z,83.20
2022-08-30T05:45:17.596Z,83.10
2022-08-30T05:47:44.568Z,83.30
2022-08-30T05:50:11.448Z,83.40
2022-08-30T05:52:40.051Z,83.70
2022-08-30T05:55:08.118Z,83.50
2022-08-30T05:57:36.996Z,83.40
2022-08-30T14:22:57.085Z,53.80
2022-08-30T14:25:23.873Z,54.20
2022-08-30T14:27:50.711Z,54.30
2022-08-30T14:30:21.089Z,53.70
2022-08-30T14:32:48.113Z,53.10
2022-08-30T14:35:18.404Z,52.70
2022-08-30T14:37:49.291Z,52.60
2022-08-30T14:40:17.589Z,52.30
2022-08-30T14:42:44.845Z,52.40
2022-08-30T14:45:12.246Z,52.50
2022-08-30T14:47:39.363Z,52.30
2022-08-30T14:50:07.524Z,52.50
2022-08-30T14:52:35.574Z,53.10
2022-08-30T14:55:09.234Z,53.10
2022-08-30T14:57:38.177Z,53.00
2022-08-30T15:00:08.624Z,53.20
2022-08-30T15:02:35.522Z,53.40
2022-08-30T15:05:02.810Z,53.60
2022-08-30T15:07:31.184Z,53.70
2022-08-30T15:09:58.150Z,54.10
2022-08-30T15:12:24.914Z,54.40
2022-08-30T15:14:51.703Z,54.70
2022-08-30T15:17:19.265Z,55.00
2022-08-30T15:19:46.040Z,55.20
2022-08-30T15:22:15.169Z,55.40
2022-08-30T15:24:43.389Z,55.60
2022-08-30T15:27:15.743Z,55.80
2022-08-30T15:29:42.578Z,56.00
2022-08-30T15:32:09.383Z,56.70
2022-08-30T15:34:36.412Z,56.30
2022-08-30T15:37:04.959Z,56.40
2022-08-30T15:39:32.300Z,56.50
2022-08-30T15:42:01.175Z,56.50
2022-08-30T15:44:32.483Z,56.70
2022-08-30T15:47:01.392Z,56.80
2022-08-30T15:49:28.679Z,56.80
2022-08-30T15:52:01.721Z,56.90
2022-08-30T15:54:28.895Z,57.00
2022-08-30T15:56:59.382Z,57.00
2022-08-30T15:59:28.046Z,57.20
2022-08-30T16:01:54.994Z,57.30
2022-08-30T16:04:24.280Z,57.30
2022-08-30T16:06:53.288Z,57.40
2022-08-30T16:09:21.020Z,57.40
2022-08-30T16:11:48.643Z,57.50
2022-08-30T16:14:15.490Z,57.40
2022-08-30T16:16:42.253Z,57.50
2022-08-30T16:19:10.171Z,57.40
2022-08-30T16:21:38.050Z,57.60
2022-08-30T16:24:06.618Z,57.60
2022-08-30T16:26:35.021Z,57.60
2022-08-30T16:29:03.156Z,57.60
2022-08-30T16:31:31.646Z,57.70
2022-08-30T16:34:02.629Z,57.70
2022-08-30T16:36:30.875Z,57.70
2022-08-30T16:38:58.489Z,57.70
2022-08-30T16:41:25.776Z,57.80
2022-08-30T16:43:53.189Z,57.80
2022-08-30T16:46:27.736Z,57.80
2022-08-30T16:48:57.079Z,57.90
2022-08-30T16:51:26.563Z,58.00
2022-08-30T16:53:56.221Z,58.00
2022-08-30T16:56:26.505Z,58.00
2022-08-30T16:59:00.835Z,58.10
2022-08-30T17:01:28.885Z,58.20
2022-08-30T17:03:56.230Z,58.30
2022-08-30T17:06:23.050Z,58.30
2022-08-30T17:08:55.780Z,58.30
2022-08-30T17:11:24.495Z,58.40
2022-08-30T17:13:51.787Z,58.40
2022-08-30T17:19:07.898Z,58.50
2022-08-30T17:21:35.330Z,58.50
2022-08-30T17:24:03.123Z,58.50
2022-08-30T17:26:35.622Z,58.50
2022-08-30T17:29:03.532Z,58.60
2022-08-30T17:34:17.413Z,58.60
2022-08-30T17:36:44.248Z,58.70
2022-08-30T17:39:11.839Z,58.70
2022-08-30T17:41:45.575Z,58.70
2022-08-30T17:44:17.908Z,58.50
2022-08-30T17:46:45.123Z,58.20
2022-08-30T17:49:12.042Z,57.80
2022-08-30T17:51:42.448Z,58.20
2022-08-30T17:54:11.971Z,58.60
2022-08-30T17:56:40.236Z,57.80
2022-08-30T17:59:08.032Z,57.90
2022-08-30T18:01:36.829Z,57.50
2022-08-30T18:04:06.091Z,57.50
2022-08-30T18:06:34.055Z,57.40
2022-08-30T18:09:01.854Z,57.90
2022-08-30T18:11:28.656Z,57.70
2022-08-30T18:13:55.656Z,58.00
2022-08-30T18:16:26.414Z,58.10
2022-08-30T18:18:57.448Z,57.90
2022-08-30T18:21:25.545Z,58.10
2022-08-30T18:23:55.564Z,58.60
2022-08-30T18:26:24.078Z,58.70
2022-08-30T18:28:51.468Z,59.10
2022-08-30T18:31:18.319Z,59.50
2022-08-30T18:33:45.344Z,59.30
2022-08-30T18:36:12.709Z,59.10
2022-08-30T18:38:40.255Z,59.40
2022-08-30T18:41:13.809Z,59.70
2022-08-30T18:43:41.434Z,59.50
2022-08-30T18:46:15.135Z,59.90
2022-08-30T18:48:46.005Z,59.80
2022-08-30T18:51:16.366Z,60.00
2022-08-30T18:53:44.594Z,60.00
2022-08-30T18:56:12.340Z,60.00
2022-08-30T18:58:40.523Z,60.20
2022-08-30T19:01:11.449Z,60.30
2022-08-30T19:03:41.914Z,60.30
2022-08-30T19:06:11.618Z,60.50
2022-08-30T19:08:40.143Z,60.60
2022-08-30T19:11:08.471Z,60.50
2022-08-30T19:13:36.507Z,60.70
2022-08-30T19:16:05.661Z,60.70
2022-08-30T19:18:32.698Z,60.70
2022-08-30T19:20:59.981Z,60.80
2022-08-30T19:23:33.038Z,60.80
2022-08-30T19:26:00.966Z,60.80
2022-08-30T19:28:28.728Z,60.80
2022-08-30T19:30:55.548Z,60.80
2022-08-30T19:33:22.375Z,60.80
2022-08-30T19:35:51.308Z,60.90
2022-08-30T19:38:18.664Z,60.90
2022-08-30T19:40:49.080Z,61.10
2022-08-30T19:43:19.415Z,61.00
2022-08-30T19:45:46.257Z,61.10
2022-08-30T19:48:13.784Z,61.10
2022-08-30T19:50:41.956Z,61.10
2022-08-30T19:53:09.102Z,61.10
2022-08-30T19:55:37.501Z,61.00
2022-08-30T19:58:04.688Z,61.10
2022-08-30T20:00:31.738Z,61.10
2022-08-30T20:03:01.425Z,61.00
2022-08-30T20:05:29.226Z,61.00
2022-08-30T20:07:58.339Z,61.10
2022-08-30T20:10:25.963Z,61.20
2022-08-30T20:12:53.004Z,61.20
2022-08-30T20:15:23.644Z,61.30
2022-08-30T20:18:05.384Z,61.30
2022-08-30T20:20:33.723Z,61.30
2022-08-30T20:23:04.649Z,61.30
2022-08-30T20:24:24.989Z,58.40
2022-08-30T20:24:24.993Z,58.60
2022-08-30T20:25:32.241Z,61.30
2022-08-30T20:28:00.445Z,61.40
2022-08-30T20:30:27.401Z,61.40
2022-08-30T20:32:54.464Z,61.40
2022-08-30T20:35:21.602Z,61.30
2022-08-30T20:37:49.809Z,61.40
2022-08-30T20:40:17.386Z,61.40
2022-08-30T20:42:46.292Z,61.40
2022-08-30T20:45:15.204Z,61.40
2022-08-30T20:47:43.200Z,61.40
2022-08-30T20:50:14.296Z,61.40
2022-08-30T20:52:41.707Z,61.40
2022-08-30T20:55:09.994Z,61.40
2022-08-30T20:57:37.175Z,61.40
2022-08-30T21:00:08.696Z,61.50
2022-08-30T21:02:36.938Z,61.40
2022-08-30T21:05:11.638Z,61.40
2022-08-30T21:07:38.842Z,61.30
2022-08-30T21:10:06.247Z,61.30
2022-08-30T21:12:33.209Z,61.30
2022-08-30T21:15:07.360Z,61.50
2022-08-30T21:17:42.237Z,61.50
2022-08-30T21:20:10.164Z,61.50
2022-08-30T21:22:38.270Z,61.40
2022-08-30T21:25:06.087Z,61.40
2022-08-30T21:27:32.863Z,61.40
2022-08-30T21:30:00.036Z,61.40
2022-08-30T21:32:26.877Z,61.40
2022-08-30T21:35:11.997Z,61.40
2022-08-30T21:37:38.775Z,61.50
2022-08-30T21:40:06.028Z,61.40
2022-08-30T21:42:33.440Z,61.40
2022-08-30T21:45:00.226Z,61.50
2022-08-30T21:47:27.268Z,61.50
2022-08-30T21:49:54.087Z,61.60
2022-08-30T21:52:20.853Z,61.40
2022-08-30T21:54:48.620Z,61.40
2022-08-30T21:57:16.978Z,61.50
2022-08-30T21:59:44.735Z,61.50
2022-08-30T22:02:12.221Z,61.50
2022-08-30T22:04:40.840Z,61.50
2022-08-30T22:07:08.402Z,61.50
2022-08-30T22:09:35.781Z,61.50
2022-08-30T22:12:04.673Z,61.50
2022-08-30T22:14:33.791Z,61.50
2022-08-30T22:17:02.066Z,61.40
2022-08-30T22:19:31.550Z,61.50
2022-08-30T22:22:01.698Z,61.40
2022-08-30T22:24:32.852Z,61.50
2022-08-30T22:27:03.436Z,61.30
2022-08-30T22:29:30.564Z,61.20
2022-08-30T22:31:57.410Z,61.30
2022-08-30T22:34:24.617Z,61.20
2022-08-30T22:36:51.415Z,61.20
2022-08-30T22:39:18.479Z,61.10
2022-08-30T22:41:45.637Z,60.80
2022-08-30T22:44:12.564Z,61.10
2022-08-30T22:46:40.212Z,61.00
2022-08-30T22:49:09.184Z,61.00
2022-08-30T22:51:37.091Z,61.10
2022-08-30T22:54:05.565Z,60.80
2022-08-30T22:56:34.124Z,60.60
2022-08-30T22:59:01.493Z,60.80
2022-08-30T23:01:31.360Z,60.90
2022-08-30T23:04:00.999Z,60.80
2022-08-30T23:06:29.116Z,60.60
2022-08-30T23:08:56.258Z,60.80
2022-08-30T23:11:24.069Z,60.90
2022-08-30T23:13:50.927Z,60.90
2022-08-30T23:16:19.050Z,60.60
2022-08-30T23:18:46.912Z,60.80
2022-08-30T23:21:18.717Z,60.40
2022-08-30T23:24:03.852Z,60.70
2022-08-30T23:26:49.447Z,60.30
2022-08-30T23:29:34.940Z,60.70
2022-08-30T23:32:20.409Z,60.70
2022-08-30T23:35:05.938Z,60.40
2022-08-30T23:37:53.109Z,60.30
2022-08-30T23:40:39.869Z,60.40
2022-08-30T23:43:25.804Z,60.40
2022-08-30T23:46:11.289Z,60.40
2022-08-30T23:49:05.338Z,60.00
2022-08-30T23:51:50.832Z,60.30
2022-08-30T23:54:36.255Z,60.20
2022-08-30T23:57:21.678Z,60.10
